Aérodrome :
LOGIN :

S'inscrire | Disclaimer

   EN    FR    IT 

 










Légende :    VFR   VFR Marginal   IFR   IFR Intensif   IFR Très Intensif
Visi : 
Plafond : 
>= 8 km
>= 3000ft
5 à 8 km
1000 à 3000 ft
1500m à 5 km
500 à 1000 ft
800 à 1500m
200 à 500 ft
< 800m
< 200 ft
Symboles :   Orages  Brouillard  Fortes neiges  Fortes précipitations  Vent > 20 kt
SIGMETs :   Divers  Orages  Givrage  Turbulence  Onde Orograph.  Cendres Volcan.






- Altitude de l'aérodrome : 459 ft
- Code IATA : CER


LFRC - Cherbourg / Maupertus

DERNIER METAR :
  • 140600Z AUTO 17011KT 9999 -RA FEW023/// SCT028/// BKN034/// ///TCU 04/03 Q0991 TEMPO 18015G25KT 3000 TSRAGS BKN020CB

METARs EXPIRÉS :
  • 140530Z AUTO 19006KT 8000 -RA SCT024/// BKN029/// BKN035/// ///TCU 04/04 Q0991 TEMPO 18015G25KT 3000 TSRAGS BKN020CB
  • 140500Z AUTO 19005KT 9999 FEW030/// SCT035/// BKN047/// ///TCU 04/03 Q0991
  • 140430Z AUTO 15004KT 9999 FEW026 BKN034 BKN041 04/03 Q0990
  • 140400Z AUTO 18005KT 8000 RA FEW021/// SCT029/// BKN036/// ///TCU 04/03 Q0990
  • 140330Z AUTO 21012KT 4100 RA BR FEW019/// BKN026/// BKN038/// ///CB 04/03 Q0990

TAF TAF LFRC
Valide du 14 à 06h jusqu'au 14 à 15h UTC


140500Z 1406/1415 18005KT 9999 BKN030
TEMPO 1406/1415 4000 SHRAGS BKN020CB
PROB30
TEMPO 1406/1409 18015G25KT 3000 TSRAGS



MET'MAP, la Météo Aéronautique d'un coup d'oeil ! - Copyright ORBIFLY Décembre 2007 - Disclaimer

ORBIFLY MET'MAP TEAM :

Programmation & Développement : Alexandra Zaïnal
Conception & Développement : Baudouin d'Aumeries
Co-Programmation & Développement : Marc-Olivier Méhu
Soutien technique & logistique : Manuel Goepfert

Contact : metmap@orbifly.com




SOURCES & CREDITS :

   NOAA